Time;durP1;ratioP1;P1;durP2;ratioP2;P2;SDS_P1;SDS_P2;PMS_P1;PMS_P2;Temp;Humidity;BMP_temperature;BMP_pressure;BME280_temperature;BME280_humidity;BME280_pressure;Samples;Min_cycle;Max_cycle;Signal;HPM_P1;HPM_P2
2023/12/20 00:01:28;;;;;;;2.77;2.60;;;6.60;99.90;;;;;;4951320;28;21117;-57
2023/12/20 00:03:55;;;;;;;4.50;2.47;;;6.60;99.90;;;;;;4952047;29;20547;-57
2023/12/20 00:06:21;;;;;;;2.80;2.60;;;6.60;99.90;;;;;;4950801;28;20471;-57
2023/12/20 00:08:49;;;;;;;3.40;2.73;;;6.60;99.90;;;;;;4949695;29;20498;-57
2023/12/20 00:11:16;;;;;;;3.10;3.00;;;6.60;99.90;;;;;;4951359;28;20483;-57
2023/12/20 00:13:42;;;;;;;2.90;2.80;;;6.60;99.90;;;;;;4955735;29;20442;-57
2023/12/20 00:16:10;;;;;;;3.07;2.97;;;6.60;99.90;;;;;;4951790;29;20443;-57
2023/12/20 00:18:36;;;;;;;3.03;2.93;;;6.60;99.90;;;;;;4954873;29;20816;-57
2023/12/20 00:21:03;;;;;;;3.13;3.03;;;6.60;99.90;;;;;;4955300;28;20894;-56
2023/12/20 00:23:30;;;;;;;2.70;2.60;;;6.60;99.90;;;;;;4950881;28;20518;-57
2023/12/20 00:25:58;;;;;;;3.53;3.33;;;6.60;99.90;;;;;;4954123;29;20559;-57
2023/12/20 00:28:25;;;;;;;3.17;2.93;;;6.60;99.90;;;;;;4948596;29;20890;-57
2023/12/20 00:30:51;;;;;;;2.90;2.80;;;6.60;99.90;;;;;;4954520;28;20879;-57
2023/12/20 00:33:18;;;;;;;5.27;2.83;;;6.60;99.90;;;;;;4955272;29;20996;-57
2023/12/20 00:35:44;;;;;;;2.83;2.73;;;6.60;99.90;;;;;;4954994;29;20482;-57
2023/12/20 00:38:11;;;;;;;4.30;2.90;;;6.60;99.90;;;;;;4954453;29;20505;-57
2023/12/20 00:40:38;;;;;;;2.40;2.30;;;6.60;99.90;;;;;;4954896;28;20988;-57
2023/12/20 00:43:06;;;;;;;2.37;2.27;;;6.60;99.90;;;;;;4946525;28;20928;-57
2023/12/20 00:45:32;;;;;;;2.80;2.60;;;6.60;99.90;;;;;;4953709;29;20462;-58
2023/12/20 00:48:00;;;;;;;2.73;2.63;;;6.60;99.90;;;;;;4950435;29;20541;-57
2023/12/20 00:50:26;;;;;;;2.17;2.07;;;6.60;99.90;;;;;;4954958;28;20466;-57
2023/12/20 00:52:54;;;;;;;2.70;2.60;;;6.60;99.90;;;;;;4954437;29;20478;-57
2023/12/20 00:55:21;;;;;;;2.53;2.43;;;6.60;99.90;;;;;;4954343;29;20450;-62
2023/12/20 00:57:48;;;;;;;2.40;2.30;;;6.60;99.90;;;;;;4954662;29;20450;-63
2023/12/20 01:00:16;;;;;;;2.40;2.03;;;6.70;99.90;;;;;;4947077;28;20494;-63
2023/12/20 01:02:43;;;;;;;1.70;1.70;;;6.70;99.90;;;;;;4953970;29;20474;-63
2023/12/20 01:05:09;;;;;;;2.17;2.07;;;6.60;99.90;;;;;;4947249;28;20466;-56
2023/12/20 01:07:36;;;;;;;2.40;2.20;;;6.70;99.90;;;;;;4952833;29;20831;-56
2023/12/20 01:10:03;;;;;;;2.53;2.33;;;6.60;99.90;;;;;;4945891;29;20564;-55
2023/12/20 01:12:29;;;;;;;2.53;2.43;;;6.60;99.90;;;;;;4948907;29;20533;-57
2023/12/20 01:14:56;;;;;;;4.03;2.50;;;6.70;99.90;;;;;;4951005;29;20470;-57
2023/12/20 01:17:24;;;;;;;2.10;2.00;;;6.70;99.90;;;;;;4952195;29;20479;-53
2023/12/20 01:19:50;;;;;;;2.43;2.33;;;6.70;99.90;;;;;;4954555;28;20466;-55
2023/12/20 01:22:17;;;;;;;1.83;1.83;;;6.70;99.90;;;;;;4953568;29;20458;-63
2023/12/20 01:24:43;;;;;;;2.20;2.10;;;6.60;99.90;;;;;;4948055;28;20483;-57
2023/12/20 01:27:10;;;;;;;1.90;1.80;;;6.70;99.90;;;;;;4951188;29;20513;-62
2023/12/20 01:29:36;;;;;;;1.83;1.83;;;6.60;99.90;;;;;;4951883;28;20482;-57
2023/12/20 01:32:03;;;;;;;2.30;2.20;;;6.70;99.90;;;;;;4952253;29;20518;-54
2023/12/20 01:34:31;;;;;;;2.53;2.00;;;6.70;99.90;;;;;;4945270;29;20892;-54
2023/12/20 01:36:58;;;;;;;3.13;3.00;;;6.70;99.90;;;;;;4949589;29;20451;-55
2023/12/20 01:39:24;;;;;;;2.00;1.90;;;6.70;99.90;;;;;;4951351;29;20442;-55
2023/12/20 01:41:51;;;;;;;2.10;2.00;;;6.70;99.90;;;;;;4949471;28;20514;-55
2023/12/20 01:44:17;;;;;;;3.53;2.50;;;6.70;99.90;;;;;;4947590;29;20889;-55
2023/12/20 01:46:44;;;;;;;2.30;2.20;;;6.60;99.90;;;;;;4952392;29;20875;-52
2023/12/20 01:49:10;;;;;;;2.60;2.50;;;6.70;99.90;;;;;;4953826;29;20482;-55
2023/12/20 01:51:39;;;;;;;2.90;2.80;;;6.70;99.90;;;;;;4949704;28;20573;-55
2023/12/20 01:54:05;;;;;;;3.07;2.87;;;6.70;99.90;;;;;;4953189;29;20446;-55
2023/12/20 01:56:33;;;;;;;4.27;3.20;;;6.60;99.90;;;;;;4953580;29;20481;-55
2023/12/20 01:59:01;;;;;;;2.43;2.33;;;6.70;99.90;;;;;;4944645;28;20529;-54
2023/12/20 02:01:28;;;;;;;2.80;2.70;;;6.60;99.90;;;;;;4952529;28;21212;-62
2023/12/20 02:03:55;;;;;;;2.30;2.20;;;6.60;99.90;;;;;;4951374;29;20851;-63
2023/12/20 02:06:24;;;;;;;3.00;2.80;;;6.60;99.90;;;;;;4950052;29;20482;-62
2023/12/20 02:08:52;;;;;;;3.57;2.57;;;6.60;99.90;;;;;;4942504;29;20467;-61
2023/12/20 02:11:18;;;;;;;2.93;2.43;;;6.60;99.90;;;;;;4946395;28;20486;-62
2023/12/20 02:13:45;;;;;;;3.00;2.80;;;6.60;99.90;;;;;;4951687;29;20446;-63
2023/12/20 02:16:12;;;;;;;2.97;2.70;;;6.50;99.90;;;;;;4951599;29;20486;-63
2023/12/20 02:18:38;;;;;;;3.43;3.00;;;6.50;99.90;;;;;;4949195;29;20474;-62
2023/12/20 02:21:05;;;;;;;2.57;2.37;;;6.50;99.90;;;;;;4951514;28;20475;-63
2023/12/20 02:23:33;;;;;;;3.10;2.80;;;6.50;99.90;;;;;;4950937;29;20869;-64
2023/12/20 02:26:00;;;;;;;3.27;3.07;;;6.50;99.90;;;;;;4949707;29;21012;-62
2023/12/20 02:28:27;;;;;;;3.00;2.90;;;6.40;99.90;;;;;;4953687;29;20537;-63
2023/12/20 02:30:54;;;;;;;5.27;2.97;;;6.30;99.90;;;;;;4945969;28;20906;-62
2023/12/20 02:33:20;;;;;;;4.53;2.77;;;6.30;99.90;;;;;;4949309;29;20972;-62
2023/12/20 02:35:47;;;;;;;3.90;2.63;;;6.30;99.90;;;;;;4953170;29;21043;-63
2023/12/20 02:38:14;;;;;;;3.57;2.67;;;6.20;99.90;;;;;;4948483;28;21051;-62
2023/12/20 02:40:42;;;;;;;2.57;2.40;;;6.20;99.90;;;;;;4951161;28;20521;-63
2023/12/20 02:43:08;;;;;;;3.87;2.77;;;6.10;99.90;;;;;;4951637;29;20474;-61
2023/12/20 02:45:35;;;;;;;4.40;2.60;;;6.20;99.90;;;;;;4951158;29;20577;-62
2023/12/20 02:48:01;;;;;;;3.60;2.80;;;6.20;99.90;;;;;;4948430;29;20470;-63
2023/12/20 02:50:28;;;;;;;2.43;2.23;;;6.20;99.90;;;;;;4949496;28;20478;-63
2023/12/20 02:52:54;;;;;;;2.70;2.40;;;6.10;99.90;;;;;;4950470;28;20525;-63
2023/12/20 02:55:21;;;;;;;2.10;2.00;;;6.10;99.90;;;;;;4950615;29;20486;-63
2023/12/20 02:57:49;;;;;;;1.80;1.70;;;6.00;99.90;;;;;;4954818;29;20821;-63
2023/12/20 03:00:16;;;;;;;5.77;2.43;;;5.90;99.90;;;;;;4950331;28;21020;-63
2023/12/20 03:02:42;;;;;;;3.37;2.23;;;5.90;99.90;;;;;;4956749;29;20508;-63
2023/12/20 03:05:09;;;;;;;2.17;1.97;;;5.80;99.90;;;;;;4950946;28;20482;-62
2023/12/20 03:07:37;;;;;;;3.63;2.23;;;5.70;99.90;;;;;;4956861;29;20447;-63
2023/12/20 03:10:06;;;;;;;4.30;2.20;;;5.80;99.90;;;;;;4946913;28;20990;-62
2023/12/20 03:12:32;;;;;;;8.33;2.50;;;5.70;99.90;;;;;;4951817;29;20462;-62
2023/12/20 03:15:00;;;;;;;4.80;1.90;;;5.70;99.90;;;;;;4954450;29;20459;-62
2023/12/20 03:17:27;;;;;;;4.70;3.33;;;5.70;99.90;;;;;;4954398;29;20454;-63
2023/12/20 03:19:53;;;;;;;5.70;2.23;;;5.60;99.90;;;;;;4953930;28;21091;-63
2023/12/20 03:22:20;;;;;;;4.87;2.10;;;5.60;99.90;;;;;;4948300;29;21090;-63
2023/12/20 03:24:46;;;;;;;8.20;2.77;;;5.60;99.90;;;;;;4949947;28;21511;-63
2023/12/20 03:27:13;;;;;;;4.50;1.90;;;5.60;99.90;;;;;;4954068;29;20607;-62
2023/12/20 03:29:39;;;;;;;4.57;1.50;;;5.60;99.90;;;;;;4950749;29;20557;-62
2023/12/20 03:32:08;;;;;;;2.60;1.40;;;5.50;99.90;;;;;;4955134;29;20513;-62
2023/12/20 03:34:35;;;;;;;2.63;1.47;;;5.50;99.90;;;;;;4954255;29;20462;-63
2023/12/20 03:37:01;;;;;;;1.83;1.27;;;5.50;99.90;;;;;;4955010;29;20453;-62
2023/12/20 03:39:28;;;;;;;2.97;1.90;;;5.50;99.90;;;;;;4953004;29;20462;-61
2023/12/20 03:41:54;;;;;;;2.93;1.27;;;5.50;99.90;;;;;;4949557;29;20461;-63
2023/12/20 03:44:21;;;;;;;6.37;1.80;;;5.50;99.90;;;;;;4952290;29;20494;-62
2023/12/20 03:46:49;;;;;;;9.83;2.20;;;5.50;99.90;;;;;;4952748;29;20501;-63
2023/12/20 03:49:16;;;;;;;7.60;2.10;;;5.50;99.90;;;;;;4950780;28;20462;-63
2023/12/20 03:51:43;;;;;;;4.40;1.40;;;5.60;99.90;;;;;;4950508;29;20482;-62
2023/12/20 03:54:10;;;;;;;3.63;1.70;;;5.60;99.90;;;;;;4954313;29;20462;-63
2023/12/20 03:56:36;;;;;;;6.67;1.80;;;5.60;99.90;;;;;;4954399;29;20498;-61
2023/12/20 03:59:03;;;;;;;4.00;1.63;;;5.60;99.90;;;;;;4951359;29;20498;-62
2023/12/20 04:01:30;;;;;;;1.57;1.40;;;5.60;99.90;;;;;;4950963;28;20574;-61
2023/12/20 04:03:56;;;;;;;5.73;1.70;;;5.60;99.90;;;;;;4953269;29;20485;-62
2023/12/20 04:06:24;;;;;;;6.70;2.10;;;5.50;99.90;;;;;;4950643;28;20470;-61
2023/12/20 04:08:51;;;;;;;7.20;2.03;;;5.50;99.90;;;;;;4942531;28;20467;-62
2023/12/20 04:11:17;;;;;;;5.03;1.63;;;5.50;99.90;;;;;;4948659;28;20482;-61
2023/12/20 04:13:44;;;;;;;17.10;2.30;;;5.60;99.90;;;;;;4953485;29;20527;-62
2023/12/20 04:16:10;;;;;;;4.93;1.90;;;5.60;99.90;;;;;;4954669;29;20450;-61
2023/12/20 04:18:37;;;;;;;7.80;1.50;;;5.50;99.90;;;;;;4954754;29;21015;-62
2023/12/20 04:21:04;;;;;;;12.53;1.80;;;5.50;99.90;;;;;;4955532;28;20466;-63
2023/12/20 04:23:32;;;;;;;7.10;1.90;;;5.50;99.90;;;;;;4955108;29;20443;-61
2023/12/20 04:25:58;;;;;;;3.17;1.30;;;5.50;99.90;;;;;;4946764;28;20509;-61
2023/12/20 04:28:25;;;;;;;10.60;1.80;;;5.50;99.90;;;;;;4954455;29;20509;-61
2023/12/20 04:30:51;;;;;;;6.30;1.80;;;5.50;99.90;;;;;;4953417;28;20474;-61
2023/12/20 04:33:18;;;;;;;3.53;1.30;;;5.50;99.90;;;;;;4952940;29;20496;-62
2023/12/20 04:35:46;;;;;;;8.03;1.60;;;5.50;99.90;;;;;;4953355;29;20438;-62
2023/12/20 04:38:12;;;;;;;5.77;1.60;;;5.40;99.90;;;;;;4952833;29;20513;-62
2023/12/20 04:40:41;;;;;;;15.60;1.70;;;5.40;99.90;;;;;;4952399;28;20529;-63
2023/12/20 04:43:07;;;;;;;5.30;1.97;;;5.40;99.90;;;;;;4943806;29;20506;-61
2023/12/20 04:45:34;;;;;;;4.40;1.60;;;5.30;99.90;;;;;;4949004;29;20518;-61
2023/12/20 04:48:00;;;;;;;5.73;1.60;;;5.30;99.90;;;;;;4950060;29;21008;-63
2023/12/20 04:50:27;;;;;;;2.77;1.73;;;5.20;99.90;;;;;;4949794;28;20489;-62
2023/12/20 04:52:54;;;;;;;4.20;1.27;;;5.10;99.90;;;;;;4950285;29;20494;-60
2023/12/20 04:55:20;;;;;;;4.70;1.67;;;5.10;99.90;;;;;;4951757;29;20463;-61
2023/12/20 04:57:48;;;;;;;13.77;1.43;;;5.00;99.90;;;;;;4950792;29;20457;-61
2023/12/20 05:00:15;;;;;;;7.13;1.60;;;4.90;99.90;;;;;;4951067;28;20474;-61
2023/12/20 05:02:42;;;;;;;4.20;1.63;;;4.90;99.90;;;;;;4947671;28;20462;-62
2023/12/20 05:05:09;;;;;;;2.70;1.53;;;4.80;99.90;;;;;;4950542;29;20512;-61
2023/12/20 05:07:36;;;;;;;6.47;1.70;;;4.70;99.90;;;;;;4946887;28;20826;-61
2023/12/20 05:10:04;;;;;;;7.10;1.83;;;4.70;99.90;;;;;;4945058;28;20544;-62
2023/12/20 05:12:30;;;;;;;6.40;1.67;;;4.70;99.90;;;;;;4949711;29;20470;-62
2023/12/20 05:14:59;;;;;;;7.83;1.63;;;4.60;99.90;;;;;;4951500;29;20466;-62
2023/12/20 05:17:26;;;;;;;4.07;1.37;;;4.60;99.90;;;;;;4950694;28;20470;-61
2023/12/20 05:19:52;;;;;;;3.57;1.10;;;4.50;99.90;;;;;;4952148;28;21015;-63
2023/12/20 05:22:20;;;;;;;6.87;2.50;;;4.50;99.90;;;;;;4950929;29;20467;-56
2023/12/20 05:24:46;;;;;;;6.60;1.80;;;4.50;99.90;;;;;;4950920;29;20601;-55
2023/12/20 05:27:13;;;;;;;6.57;2.60;;;4.40;99.90;;;;;;4942010;29;20540;-55
2023/12/20 05:29:39;;;;;;;8.53;2.30;;;4.40;99.90;;;;;;4950782;28;20523;-57
2023/12/20 05:32:07;;;;;;;8.00;1.87;;;4.50;99.90;;;;;;4950548;29;20556;-55
2023/12/20 05:34:34;;;;;;;4.40;1.57;;;4.40;99.90;;;;;;4948919;29;20936;-56
2023/12/20 05:37:01;;;;;;;6.63;2.07;;;4.40;99.90;;;;;;4946109;29;20466;-56
2023/12/20 05:39:28;;;;;;;8.60;1.70;;;4.40;99.90;;;;;;4951390;28;20483;-56
2023/12/20 05:41:54;;;;;;;8.73;2.40;;;4.30;99.90;;;;;;4954276;29;20447;-56
2023/12/20 05:44:21;;;;;;;7.00;2.23;;;4.30;99.90;;;;;;4944529;28;20513;-56
2023/12/20 05:46:47;;;;;;;8.63;1.97;;;4.30;99.90;;;;;;4949657;28;20470;-56
2023/12/20 05:49:15;;;;;;;10.93;2.03;;;4.30;99.90;;;;;;4950196;29;20466;-55
2023/12/20 05:51:42;;;;;;;2.57;1.60;;;4.30;99.90;;;;;;4949230;28;20471;-57
2023/12/20 05:54:09;;;;;;;4.40;2.23;;;4.40;99.90;;;;;;4947913;28;20489;-57
2023/12/20 05:56:36;;;;;;;7.63;2.13;;;4.40;99.90;;;;;;4949927;29;20856;-56
2023/12/20 05:59:03;;;;;;;7.80;1.63;;;4.50;99.90;;;;;;4951037;28;20525;-57
2023/12/20 06:01:29;;;;;;;7.80;2.03;;;4.50;99.90;;;;;;4950304;28;20593;-56
2023/12/20 06:03:56;;;;;;;10.37;3.10;;;4.50;99.90;;;;;;4946222;29;20455;-56
2023/12/20 06:06:24;;;;;;;7.37;2.43;;;4.50;99.90;;;;;;4946946;29;20487;-56
2023/12/20 06:08:50;;;;;;;5.90;2.13;;;4.50;99.90;;;;;;4945607;29;20533;-55
2023/12/20 06:11:17;;;;;;;10.03;2.27;;;4.50;99.90;;;;;;4946113;28;20545;-56
2023/12/20 06:13:43;;;;;;;5.47;1.90;;;4.40;99.90;;;;;;4949209;29;20556;-55
2023/12/20 06:16:10;;;;;;;9.83;1.80;;;4.40;99.90;;;;;;4949169;29;20517;-55
2023/12/20 06:18:37;;;;;;;5.13;1.80;;;4.40;99.90;;;;;;4948919;29;20470;-55
2023/12/20 06:21:04;;;;;;;7.33;2.17;;;4.40;99.90;;;;;;4947311;28;20482;-56
2023/12/20 06:23:32;;;;;;;4.20;1.60;;;4.40;99.90;;;;;;4944967;28;20462;-56
2023/12/20 06:25:58;;;;;;;18.83;2.40;;;4.50;99.90;;;;;;4948835;29;20486;-57
2023/12/20 06:28:25;;;;;;;13.60;1.97;;;4.50;99.90;;;;;;4948237;29;20470;-56
2023/12/20 06:30:54;;;;;;;7.30;2.23;;;4.50;99.90;;;;;;4946962;28;20535;-57
2023/12/20 06:33:22;;;;;;;2.70;1.33;;;4.50;99.90;;;;;;4946933;29;20465;-56
2023/12/20 06:35:48;;;;;;;6.23;1.47;;;4.50;99.90;;;;;;4949525;29;20462;-57
2023/12/20 06:38:15;;;;;;;7.63;2.40;;;4.50;99.90;;;;;;4945749;29;20905;-56
2023/12/20 06:40:43;;;;;;;6.87;1.90;;;4.50;99.90;;;;;;4946259;28;20541;-57
2023/12/20 06:43:10;;;;;;;8.83;1.77;;;4.50;99.90;;;;;;4948447;29;20458;-56
2023/12/20 06:45:36;;;;;;;8.53;2.57;;;4.50;99.90;;;;;;4947806;29;21033;-57
2023/12/20 06:48:03;;;;;;;14.33;2.20;;;4.60;99.90;;;;;;4947945;29;20529;-55
2023/12/20 06:50:30;;;;;;;4.90;1.80;;;4.60;99.90;;;;;;4948361;28;20474;-56
2023/12/20 06:52:56;;;;;;;7.93;1.93;;;4.60;99.90;;;;;;4947147;28;20470;-59
2023/12/20 06:55:23;;;;;;;11.67;2.40;;;4.60;99.90;;;;;;4947896;29;20522;-57
2023/12/20 06:57:51;;;;;;;8.40;2.30;;;4.60;99.90;;;;;;4948163;28;20466;-57
2023/12/20 07:00:19;;;;;;;4.83;1.60;;;4.60;99.90;;;;;;4948701;28;20493;-56
2023/12/20 07:02:47;;;;;;;17.33;3.30;;;4.70;99.90;;;;;;4948118;29;20988;-56
2023/12/20 07:05:16;;;;;;;8.70;1.70;;;4.70;99.90;;;;;;4948353;29;20552;-55
2023/12/20 07:07:43;;;;;;;5.03;1.73;;;4.80;99.90;;;;;;4949683;29;20510;-56
2023/12/20 07:10:09;;;;;;;6.43;2.03;;;4.80;99.90;;;;;;4939261;28;20995;-56
2023/12/20 07:12:36;;;;;;;9.93;2.57;;;4.80;99.90;;;;;;4946075;28;20458;-56
2023/12/20 07:15:05;;;;;;;8.87;2.00;;;4.80;99.20;;;;;;4948153;29;20462;-56
2023/12/20 07:17:33;;;;;;;4.23;1.70;;;4.80;92.00;;;;;;4947895;29;20462;-56
2023/12/20 07:20:03;;;;;;;4.43;1.70;;;4.80;77.70;;;;;;4949044;28;20510;-57
2023/12/20 07:22:29;;;;;;;7.90;2.07;;;4.80;21.80;;;;;;4948923;29;20466;-56
2023/12/20 07:24:56;;;;;;;11.00;2.13;;;4.90;26.10;;;;;;4948662;29;20498;-56
2023/12/20 07:27:23;;;;;;;9.20;2.30;;;4.90;27.50;;;;;;4948694;29;20501;-56
2023/12/20 07:29:49;;;;;;;5.07;1.73;;;4.90;29.20;;;;;;4948284;28;20984;-56
2023/12/20 07:32:17;;;;;;;10.33;2.37;;;4.90;30.00;;;;;;4951557;29;20832;-55
2023/12/20 07:34:44;;;;;;;8.23;2.50;;;4.90;37.50;;;;;;4948428;29;20521;-56
2023/12/20 07:37:11;;;;;;;12.83;1.80;;;4.90;36.90;;;;;;4945670;29;20491;-56
2023/12/20 07:39:38;;;;;;;7.50;2.40;;;5.00;50.50;;;;;;4944720;28;20471;-57
2023/12/20 07:42:05;;;;;;;8.53;2.30;;;5.00;51.60;;;;;;4951683;29;20517;-57
2023/12/20 07:44:32;;;;;;;3.97;2.10;;;5.00;54.00;;;;;;4943119;29;20568;-57
2023/12/20 07:46:58;;;;;;;9.50;2.00;;;5.10;59.10;;;;;;4952614;29;20553;-56
2023/12/20 07:49:26;;;;;;;10.47;3.50;;;5.10;56.80;;;;;;4948363;28;20469;-56
2023/12/20 07:51:53;;;;;;;6.53;2.07;;;5.00;54.60;;;;;;4945745;29;20662;-57
2023/12/20 07:54:19;;;;;;;9.63;2.80;;;5.00;54.40;;;;;;4939525;29;21028;-57
2023/12/20 07:56:47;;;;;;;9.90;2.33;;;5.00;54.60;;;;;;4946207;29;20517;-56
2023/12/20 07:59:13;;;;;;;8.10;2.50;;;5.10;56.60;;;;;;4942168;29;20887;-56
2023/12/20 08:01:40;;;;;;;6.30;2.10;;;5.10;59.10;;;;;;4948394;28;20893;-54
2023/12/20 08:04:06;;;;;;;9.33;2.47;;;5.10;59.10;;;;;;4944059;29;20513;-55
2023/12/20 08:06:34;;;;;;;8.93;2.13;;;5.10;59.70;;;;;;4946022;28;20486;-54
2023/12/20 08:09:01;;;;;;;8.53;2.60;;;5.10;62.90;;;;;;4952745;29;20466;-54
2023/12/20 08:11:28;;;;;;;10.67;2.43;;;5.20;69.80;;;;;;4942668;28;20494;-54
2023/12/20 08:13:54;;;;;;;9.80;2.50;;;5.10;68.90;;;;;;4946771;28;20467;-55
2023/12/20 08:16:21;;;;;;;9.53;2.43;;;5.20;72.00;;;;;;4947914;29;20506;-55
2023/12/20 08:18:48;;;;;;;6.30;2.63;;;5.20;74.00;;;;;;4944586;29;20594;-54
2023/12/20 08:21:15;;;;;;;8.50;1.92;;;5.20;75.80;;;;;;4942955;29;20463;-53
2023/12/20 08:23:43;;;;;;;17.40;2.70;;;5.20;76.20;;;;;;4946829;28;21192;-54
2023/12/20 08:26:09;;;;;;;11.33;2.77;;;5.20;79.10;;;;;;4942958;29;20493;-54
2023/12/20 08:28:37;;;;;;;11.20;2.20;;;5.20;77.80;;;;;;4939091;28;20512;-53
2023/12/20 08:31:04;;;;;;;7.43;2.30;;;5.20;82.40;;;;;;4944981;28;20529;-54
2023/12/20 08:33:30;;;;;;;10.57;2.23;;;5.30;89.10;;;;;;4948453;28;20463;-55
2023/12/20 08:35:56;;;;;;;13.43;2.53;;;5.30;88.80;;;;;;4954687;28;21115;-52
2023/12/20 08:38:22;;;;;;;8.17;2.67;;;5.30;96.90;;;;;;4954749;28;20481;-55
2023/12/20 08:40:50;;;;;;;6.63;2.30;;;5.40;96.80;;;;;;4949673;28;20310;-53
2023/12/20 08:43:17;;;;;;;5.17;2.10;;;5.40;99.80;;;;;;4946546;28;20486;-54
2023/12/20 08:45:44;;;;;;;12.30;2.67;;;5.40;96.70;;;;;;4951792;29;20529;-54
2023/12/20 08:48:11;;;;;;;6.10;2.13;;;5.40;99.90;;;;;;4949658;28;20497;-53
2023/12/20 08:50:38;;;;;;;10.03;2.47;;;5.50;99.90;;;;;;4946348;28;20482;-53
2023/12/20 08:53:05;;;;;;;7.03;1.80;;;5.50;99.90;;;;;;4954334;29;20462;-54
2023/12/20 08:55:31;;;;;;;4.57;1.90;;;5.50;99.90;;;;;;4936717;28;20970;-53
2023/12/20 08:57:59;;;;;;;5.80;1.73;;;5.60;99.90;;;;;;4954668;29;20452;-53
2023/12/20 09:00:27;;;;;;;10.00;2.83;;;5.60;99.90;;;;;;4949323;28;20494;-54
2023/12/20 09:02:54;;;;;;;3.50;1.80;;;5.70;99.90;;;;;;4949473;29;20897;-55
2023/12/20 09:05:20;;;;;;;20.33;2.97;;;5.70;99.90;;;;;;4945388;29;20498;-53
2023/12/20 09:07:47;;;;;;;13.30;3.23;;;5.70;99.90;;;;;;4943597;28;20470;-55
2023/12/20 09:10:14;;;;;;;6.43;1.73;;;5.70;99.90;;;;;;4943403;28;20987;-52
2023/12/20 09:12:42;;;;;;;7.87;1.97;;;5.70;99.90;;;;;;4938524;29;20530;-53
2023/12/20 09:15:10;;;;;;;9.70;2.93;;;5.70;99.90;;;;;;4945822;29;20462;-54
2023/12/20 09:17:36;;;;;;;13.90;3.47;;;5.70;99.90;;;;;;4935514;29;20541;-56
2023/12/20 09:20:06;;;;;;;7.77;2.40;;;5.70;99.90;;;;;;4939215;28;21154;-55
2023/12/20 09:22:33;;;;;;;7.60;2.40;;;5.70;99.90;;;;;;4946197;28;20549;-54
2023/12/20 09:24:59;;;;;;;7.43;2.20;;;5.70;99.90;;;;;;4944387;29;20454;-52
2023/12/20 09:27:26;;;;;;;5.33;2.00;;;5.60;99.90;;;;;;4940552;29;20995;-54
2023/12/20 09:29:53;;;;;;;5.83;2.40;;;5.60;99.90;;;;;;4948429;28;20478;-52
2023/12/20 09:32:21;;;;;;;7.77;2.13;;;5.60;99.90;;;;;;4942801;29;20466;-55
2023/12/20 09:34:48;;;;;;;7.03;2.23;;;5.60;99.90;;;;;;4944237;29;20518;-52
2023/12/20 09:37:15;;;;;;;5.90;2.97;;;5.60;99.90;;;;;;4946196;29;20854;-53
2023/12/20 09:39:41;;;;;;;9.10;2.87;;;5.60;99.90;;;;;;4941870;28;20463;-52
2023/12/20 09:42:09;;;;;;;11.90;2.70;;;5.70;99.90;;;;;;4942020;29;20462;-54
2023/12/20 09:44:36;;;;;;;14.77;2.90;;;5.70;99.90;;;;;;4944822;29;20478;-52
2023/12/20 09:47:04;;;;;;;8.87;3.23;;;5.70;99.90;;;;;;4948811;29;20492;-53
2023/12/20 09:49:34;;;;;;;9.27;2.60;;;5.70;99.90;;;;;;4943904;28;20518;-52
2023/12/20 09:52:01;;;;;;;12.97;3.10;;;5.70;99.90;;;;;;4942690;29;20464;-55
2023/12/20 09:54:30;;;;;;;12.70;3.10;;;5.70;99.90;;;;;;4943631;29;20558;-54
2023/12/20 09:56:57;;;;;;;10.57;2.30;;;5.80;99.90;;;;;;4946264;29;20459;-54
2023/12/20 09:59:24;;;;;;;13.53;2.60;;;5.80;99.90;;;;;;4941768;29;20469;-53
2023/12/20 10:01:56;;;;;;;5.30;2.30;;;5.80;99.90;;;;;;4935754;28;20510;-54
2023/12/20 10:04:23;;;;;;;12.53;2.90;;;5.80;99.90;;;;;;4941005;28;20459;-54
2023/12/20 10:06:52;;;;;;;6.63;2.60;;;5.80;99.90;;;;;;4940361;29;20518;-53
2023/12/20 10:09:18;;;;;;;7.43;2.50;;;5.80;99.90;;;;;;4940019;29;20467;-52
2023/12/20 10:11:45;;;;;;;6.33;2.17;;;5.80;99.90;;;;;;4937803;28;20514;-54
2023/12/20 10:14:13;;;;;;;14.17;2.73;;;5.90;99.90;;;;;;4939492;28;20653;-53
2023/12/20 10:16:42;;;;;;;5.60;2.10;;;5.90;99.90;;;;;;4947541;29;20462;-53
2023/12/20 10:19:08;;;;;;;11.03;2.80;;;5.90;99.90;;;;;;4937941;29;20495;-54
2023/12/20 10:21:35;;;;;;;7.17;3.03;;;5.90;99.90;;;;;;4941548;28;20486;-53
2023/12/20 10:24:03;;;;;;;11.93;3.10;;;5.90;99.90;;;;;;4941518;29;20463;-53
2023/12/20 10:26:29;;;;;;;11.20;2.90;;;5.90;99.90;;;;;;4943142;29;20529;-52
2023/12/20 10:29:00;;;;;;;13.13;3.23;;;5.90;99.90;;;;;;4945525;29;20934;-53
2023/12/20 10:31:28;;;;;;;14.40;2.93;;;6.00;99.90;;;;;;4939602;28;20482;-54
2023/12/20 10:33:56;;;;;;;9.63;2.50;;;6.00;99.90;;;;;;4938911;29;20817;-54
2023/12/20 10:36:26;;;;;;;10.63;2.63;;;6.10;99.90;;;;;;4944842;28;21007;-53
2023/12/20 10:38:53;;;;;;;8.40;2.17;;;6.10;99.90;;;;;;4945564;29;20837;-53
2023/12/20 10:41:27;;;;;;;8.27;2.67;;;6.10;99.90;;;;;;4940822;29;20560;-55
2023/12/20 10:43:55;;;;;;;8.10;2.90;;;6.10;99.90;;;;;;4944842;29;20455;-57
2023/12/20 10:46:22;;;;;;;10.23;3.00;;;6.00;99.90;;;;;;4951382;29;20573;-56
2023/12/20 10:48:51;;;;;;;9.33;2.80;;;6.00;99.90;;;;;;4951369;29;20486;-56
2023/12/20 10:51:19;;;;;;;10.30;2.57;;;6.00;99.90;;;;;;4936826;29;20487;-56
2023/12/20 10:53:48;;;;;;;11.77;3.30;;;6.00;99.90;;;;;;4942621;29;20462;-56
2023/12/20 10:56:17;;;;;;;10.90;3.50;;;5.90;99.90;;;;;;4945853;29;20541;-55
2023/12/20 10:58:46;;;;;;;13.33;3.27;;;6.00;99.90;;;;;;4950227;29;20442;-56
2023/12/20 11:01:14;;;;;;;6.40;2.53;;;6.00;99.90;;;;;;4942347;28;20577;-55
2023/12/20 11:03:45;;;;;;;14.63;3.63;;;6.10;99.90;;;;;;4941540;29;20443;-57
2023/12/20 11:06:25;;;;;;;15.93;3.50;;;6.10;99.90;;;;;;4937635;29;20478;-56
2023/12/20 11:09:08;;;;;;;9.53;2.50;;;6.10;99.90;;;;;;4941400;29;20455;-55
2023/12/20 11:11:40;;;;;;;17.77;3.43;;;6.10;99.90;;;;;;4944709;29;20486;-56
2023/12/20 11:14:13;;;;;;;10.03;3.60;;;6.20;99.90;;;;;;4948583;28;20442;-55
2023/12/20 11:16:41;;;;;;;9.70;3.07;;;6.20;99.90;;;;;;4947258;29;20993;-55
2023/12/20 11:19:08;;;;;;;8.80;3.77;;;6.20;99.90;;;;;;4956394;29;20443;-56
2023/12/20 11:21:35;;;;;;;8.63;2.77;;;6.10;99.90;;;;;;4956282;28;20457;-56
2023/12/20 11:24:03;;;;;;;10.07;3.30;;;6.10;99.90;;;;;;4956847;29;20442;-56
2023/12/20 11:26:30;;;;;;;10.77;3.83;;;6.00;99.90;;;;;;4956301;29;20482;-56
2023/12/20 11:29:36;;;;;;;16.37;2.83;;;5.90;99.90;;;;;;4953619;29;20466;-56
2023/12/20 11:32:04;;;;;;;10.07;2.97;;;5.90;99.90;;;;;;4949294;29;20442;-56
2023/12/20 11:34:34;;;;;;;5.80;2.57;;;5.90;99.90;;;;;;4948422;29;20999;-56
2023/12/20 11:37:00;;;;;;;9.80;3.00;;;5.90;99.90;;;;;;4952439;29;20499;-56
2023/12/20 11:39:28;;;;;;;9.70;3.30;;;5.90;99.90;;;;;;4945626;29;20968;-55
2023/12/20 11:41:57;;;;;;;6.93;2.97;;;5.80;99.90;;;;;;4945135;29;20533;-56
2023/12/20 11:44:25;;;;;;;9.50;3.40;;;5.80;99.90;;;;;;4945496;28;20462;-56
2023/12/20 11:46:54;;;;;;;12.93;4.47;;;5.80;99.90;;;;;;4948296;29;20486;-56
2023/12/20 11:49:24;;;;;;;15.33;3.70;;;5.90;99.90;;;;;;4949901;29;20467;-55
2023/12/20 11:51:51;;;;;;;8.40;3.10;;;5.90;99.90;;;;;;4951288;28;20466;-56
2023/12/20 11:54:18;;;;;;;13.83;3.60;;;5.90;99.90;;;;;;4944221;29;20965;-56
2023/12/20 11:56:44;;;;;;;11.73;3.10;;;5.90;99.90;;;;;;4941174;29;20443;-55
2023/12/20 11:59:11;;;;;;;15.23;3.90;;;5.90;99.90;;;;;;4946217;29;20439;-57
2023/12/20 12:01:38;;;;;;;14.47;2.47;;;5.90;99.90;;;;;;4945408;29;20470;-55
2023/12/20 12:04:06;;;;;;;10.43;3.17;;;5.90;99.90;;;;;;4942111;28;21005;-55
2023/12/20 12:06:33;;;;;;;10.50;3.30;;;6.00;99.90;;;;;;4950533;29;20486;-55
2023/12/20 12:08:59;;;;;;;9.93;3.17;;;6.00;99.90;;;;;;4948268;29;20458;-55
2023/12/20 12:11:26;;;;;;;11.10;3.50;;;6.00;99.90;;;;;;4939896;29;20463;-55
2023/12/20 12:13:53;;;;;;;11.27;3.30;;;6.00;99.90;;;;;;4950520;29;20514;-55
2023/12/20 12:16:21;;;;;;;8.17;3.60;;;6.00;99.90;;;;;;4947426;29;20456;-56
2023/12/20 12:18:55;;;;;;;14.77;3.70;;;5.90;99.90;;;;;;4952216;29;20502;-56
2023/12/20 12:21:23;;;;;;;9.67;3.30;;;5.90;95.40;;;;;;4950031;29;20520;-56
2023/12/20 12:23:49;;;;;;;13.80;3.73;;;5.80;87.40;;;;;;4953000;29;20446;-54
2023/12/20 12:26:16;;;;;;;10.27;3.20;;;5.80;83.00;;;;;;4949965;28;20487;-56
2023/12/20 12:28:43;;;;;;;7.87;2.60;;;5.80;71.20;;;;;;4955642;29;20446;-55
2023/12/20 12:31:14;;;;;;;12.83;3.00;;;5.70;63.60;;;;;;4955434;28;20469;-56
2023/12/20 12:33:41;;;;;;;7.83;2.90;;;5.70;63.10;;;;;;4947507;29;20450;-55
2023/12/20 12:36:08;;;;;;;9.40;2.70;;;5.70;59.60;;;;;;4953392;29;20549;-60
2023/12/20 12:38:36;;;;;;;9.87;2.77;;;5.60;55.90;;;;;;4945948;28;20486;-60
2023/12/20 12:41:03;;;;;;;14.67;3.90;;;5.70;50.60;;;;;;4947292;28;20992;-62
2023/12/20 12:43:29;;;;;;;9.40;2.50;;;5.70;50.00;;;;;;4946445;29;20559;-62
2023/12/20 12:45:56;;;;;;;9.57;2.67;;;5.60;44.90;;;;;;4947960;29;20464;-62
2023/12/20 12:48:23;;;;;;;12.60;3.10;;;5.60;47.40;;;;;;4939348;29;20483;-60
2023/12/20 12:50:48;;;;;;;9.27;2.53;;;5.60;45.00;;;;;;4949637;28;20515;-61
2023/12/20 12:53:15;;;;;;;6.10;2.90;;;5.60;41.90;;;;;;4949018;29;20484;-62
2023/12/20 12:55:43;;;;;;;10.03;2.33;;;5.50;38.00;;;;;;4945083;28;20626;-62